createdAt,value
2017-05-23T04:27:13.119Z,20.30
2017-05-23T04:28:12.045Z,20.30
2017-05-23T04:29:12.019Z,20.30
2017-05-23T04:30:13.048Z,20.30
2017-05-23T04:31:12.789Z,20.30
2017-05-23T04:32:11.827Z,20.30
2017-05-23T04:33:13.064Z,20.30
2017-05-23T04:34:09.928Z,20.30
2017-05-23T04:35:13.773Z,20.30
2017-05-23T04:36:09.409Z,20.30
2017-05-23T04:37:13.136Z,20.30
2017-05-23T04:38:12.287Z,20.30
2017-05-23T04:39:11.799Z,20.30
2017-05-23T04:40:13.074Z,20.30
2017-05-23T04:41:12.257Z,20.30
2017-05-23T04:42:13.160Z,20.30
2017-05-23T04:43:12.128Z,20.30
2017-05-23T04:44:10.218Z,20.30
2017-05-23T04:45:12.416Z,20.30
2017-05-23T04:46:12.646Z,20.30
2017-05-23T04:47:09.954Z,20.30
2017-05-23T04:48:12.231Z,20.30
2017-05-23T04:49:12.613Z,20.30
2017-05-23T04:50:13.065Z,20.30
2017-05-23T04:51:13.871Z,20.30
2017-05-23T04:52:12.805Z,20.30
2017-05-23T04:53:13.276Z,20.30
2017-05-23T04:54:12.948Z,20.30
2017-05-23T04:55:12.527Z,20.30
2017-05-23T04:56:12.996Z,20.30
2017-05-23T04:57:12.620Z,20.30
2017-05-23T04:58:13.218Z,20.30
2017-05-23T04:59:13.030Z,20.30
2017-05-23T05:00:13.046Z,20.30
2017-05-23T05:01:12.351Z,20.30
2017-05-23T05:02:13.517Z,20.30
2017-05-23T05:03:12.866Z,20.30
2017-05-23T05:04:14.123Z,20.30
2017-05-23T05:05:10.282Z,20.30
2017-05-23T05:06:13.307Z,20.30
2017-05-23T05:07:13.133Z,20.30
2017-05-23T05:08:13.356Z,20.30
2017-05-23T05:09:13.051Z,20.30
2017-05-23T05:10:08.608Z,20.30
2017-05-23T05:11:13.113Z,20.30
2017-05-23T05:12:13.298Z,20.30
2017-05-23T05:13:13.925Z,20.30
2017-05-23T05:14:12.360Z,20.30
2017-05-23T05:15:12.888Z,20.30
2017-05-23T05:16:12.346Z,20.30
2017-05-23T05:17:13.484Z,20.30
2017-05-23T05:18:14.142Z,20.30
2017-05-23T05:19:12.668Z,20.30
2017-05-23T05:20:13.472Z,20.30
2017-05-23T05:21:13.716Z,20.30
2017-05-23T05:22:10.703Z,20.30
2017-05-23T05:23:09.445Z,20.30
2017-05-23T05:24:13.219Z,20.30
2017-05-23T05:25:12.750Z,20.30
2017-05-23T05:26:12.232Z,20.30
2017-05-23T05:27:12.757Z,20.30
2017-05-23T05:28:12.349Z,20.30
2017-05-23T05:29:13.862Z,20.30
2017-05-23T05:30:12.389Z,20.30
2017-05-23T05:31:12.724Z,20.30
2017-05-23T05:32:14.323Z,20.30
2017-05-23T05:33:12.991Z,20.30
2017-05-23T05:34:12.516Z,20.30
2017-05-23T05:35:12.936Z,20.30
2017-05-23T05:36:12.861Z,20.30
2017-05-23T05:37:14.147Z,20.30
2017-05-23T05:38:10.222Z,20.30
2017-05-23T05:39:15.324Z,20.30
2017-05-23T05:40:12.811Z,20.30
2017-05-23T05:41:10.029Z,20.30
2017-05-23T05:42:13.161Z,20.20
2017-05-23T05:43:09.620Z,20.30
2017-05-23T05:44:09.768Z,20.30
2017-05-23T05:45:10.645Z,20.30
2017-05-23T05:46:12.892Z,20.20
2017-05-23T05:47:12.436Z,20.30
2017-05-23T05:48:12.821Z,20.20
2017-05-23T05:49:12.416Z,20.30
2017-05-23T05:50:10.670Z,20.30
2017-05-23T05:51:10.143Z,20.30
2017-05-23T05:52:13.442Z,20.30
2017-05-23T05:53:12.882Z,20.20
2017-05-23T05:54:12.627Z,20.20
2017-05-23T05:55:14.031Z,20.20
2017-05-23T05:56:13.487Z,20.20
2017-05-23T05:57:13.548Z,20.20
2017-05-23T05:58:14.022Z,20.20
2017-05-23T05:59:12.766Z,20.20
2017-05-23T06:00:09.013Z,20.20
2017-05-23T06:01:13.038Z,20.20
2017-05-23T06:02:12.335Z,20.20
2017-05-23T06:03:12.869Z,20.20
2017-05-23T06:04:13.090Z,20.20
2017-05-23T06:05:13.526Z,20.30
2017-05-23T06:06:13.916Z,20.20
2017-05-23T06:07:10.094Z,20.30
2017-05-23T06:08:12.735Z,20.20
2017-05-23T06:09:13.390Z,20.20
2017-05-23T06:10:12.528Z,20.20
2017-05-23T06:11:13.749Z,20.30
2017-05-23T06:12:12.200Z,20.30
2017-05-23T06:13:12.960Z,20.20
2017-05-23T06:14:10.089Z,20.30
2017-05-23T06:15:13.849Z,20.20
2017-05-23T06:16:12.886Z,20.30
2017-05-23T06:17:13.037Z,20.30
2017-05-23T06:18:13.032Z,20.20
2017-05-23T06:19:12.772Z,20.20
2017-05-23T06:20:13.442Z,20.30
2017-05-23T06:21:13.023Z,20.20
2017-05-23T06:22:15.051Z,20.20
2017-05-23T06:23:13.314Z,20.20
2017-05-23T06:24:12.952Z,20.20
2017-05-23T06:25:12.578Z,20.20
2017-05-23T06:26:12.974Z,20.20
2017-05-23T06:27:13.037Z,20.20
2017-05-23T06:28:12.745Z,20.20
2017-05-23T06:29:09.751Z,20.30
2017-05-23T06:30:14.394Z,20.20
2017-05-23T06:31:10.369Z,20.20
2017-05-23T06:32:08.952Z,20.20
2017-05-23T06:33:13.103Z,20.30
2017-05-23T06:34:12.958Z,20.20
2017-05-23T06:35:12.756Z,20.20
2017-05-23T06:36:14.654Z,20.20
2017-05-23T06:37:13.023Z,20.20
2017-05-23T06:38:14.441Z,20.20
2017-05-23T06:39:13.843Z,20.20
2017-05-23T06:40:12.141Z,20.20
2017-05-23T06:41:12.635Z,20.30
2017-05-23T06:42:13.607Z,20.30
2017-05-23T06:43:13.204Z,20.30
2017-05-23T06:44:12.998Z,20.30
2017-05-23T06:45:12.938Z,20.30
2017-05-23T06:46:13.011Z,20.30
2017-05-23T06:47:12.686Z,20.30
2017-05-23T06:48:13.228Z,20.30
2017-05-23T06:49:12.697Z,20.30
2017-05-23T06:50:13.742Z,20.30
2017-05-23T06:51:14.158Z,20.30
2017-05-23T06:52:09.524Z,20.30
2017-05-23T06:53:12.791Z,20.30
2017-05-23T06:54:14.086Z,20.30
2017-05-23T06:55:12.290Z,20.30
2017-05-23T06:56:13.027Z,20.30
2017-05-23T06:57:13.704Z,20.40
2017-05-23T06:58:13.209Z,20.30
2017-05-23T06:59:12.465Z,20.40
2017-05-23T07:00:12.996Z,20.30
2017-05-23T07:01:12.380Z,20.30
2017-05-23T07:02:13.102Z,20.40
2017-05-23T07:03:12.233Z,20.30
2017-05-23T07:04:12.986Z,20.30
2017-05-23T07:05:12.355Z,20.40
2017-05-23T07:06:13.969Z,20.40
2017-05-23T07:07:12.850Z,20.40
2017-05-23T07:08:13.464Z,20.40
2017-05-23T07:09:12.750Z,20.40
2017-05-23T07:10:14.204Z,20.40
2017-05-23T07:11:13.284Z,20.40
2017-05-23T07:12:14.283Z,20.40
2017-05-23T07:13:13.666Z,20.40
2017-05-23T07:14:14.727Z,20.50
2017-05-23T07:15:13.403Z,20.40
2017-05-23T07:16:12.953Z,20.40
2017-05-23T07:17:12.848Z,20.50
2017-05-23T07:18:12.541Z,20.50
2017-05-23T07:19:13.166Z,20.50
2017-05-23T07:20:13.715Z,20.50
2017-05-23T07:21:13.149Z,20.50
2017-05-23T07:22:12.662Z,20.50
2017-05-23T07:23:13.485Z,20.50
2017-05-23T07:24:10.307Z,20.50
2017-05-23T07:25:12.334Z,20.50
2017-05-23T07:26:12.675Z,20.50
2017-05-23T07:27:13.099Z,20.50
2017-05-23T07:28:12.627Z,20.50
2017-05-23T07:29:12.375Z,20.50
2017-05-23T07:30:13.977Z,20.50
2017-05-23T07:31:12.671Z,20.50
2017-05-23T07:32:14.092Z,20.50
2017-05-23T07:33:14.621Z,20.50
2017-05-23T07:34:12.988Z,20.40
2017-05-23T07:35:14.116Z,20.40
2017-05-23T07:36:12.820Z,20.40
2017-05-23T07:37:09.467Z,20.50
2017-05-23T07:38:13.166Z,20.50
2017-05-23T07:39:13.014Z,20.40
2017-05-23T07:40:12.228Z,20.40
2017-05-23T07:41:12.734Z,20.40
2017-05-23T07:42:12.722Z,20.50
2017-05-23T07:43:13.308Z,20.40
2017-05-23T07:44:13.193Z,20.50
2017-05-23T07:45:13.944Z,20.50
2017-05-23T07:46:12.710Z,20.50
2017-05-23T07:47:13.622Z,20.50
2017-05-23T07:48:12.767Z,20.50
2017-05-23T07:49:12.275Z,20.50
2017-05-23T07:50:13.166Z,20.50
2017-05-23T07:51:10.206Z,20.50
2017-05-23T07:52:13.180Z,20.50
2017-05-23T07:53:12.900Z,20.50
2017-05-23T07:54:12.363Z,20.50
2017-05-23T07:55:13.980Z,20.50
2017-05-23T07:56:12.101Z,20.50
2017-05-23T07:57:12.897Z,20.50
2017-05-23T07:58:14.235Z,20.50
2017-05-23T07:59:13.690Z,20.50
2017-05-23T08:00:13.824Z,20.50
2017-05-23T08:01:13.987Z,20.50
2017-05-23T08:02:13.540Z,20.50
2017-05-23T08:03:12.850Z,20.50
2017-05-23T08:04:14.114Z,20.50
2017-05-23T08:05:13.103Z,20.50
2017-05-23T08:06:13.036Z,20.50
2017-05-23T08:07:12.627Z,20.50
2017-05-23T08:08:13.165Z,20.50
2017-05-23T08:09:09.946Z,20.60
2017-05-23T08:10:12.446Z,20.60
2017-05-23T08:11:13.059Z,20.60
2017-05-23T08:12:12.606Z,20.60
2017-05-23T08:13:13.927Z,20.60
2017-05-23T08:14:12.346Z,20.60
2017-05-23T08:15:14.044Z,20.60
2017-05-23T08:16:12.707Z,20.60
2017-05-23T08:17:13.683Z,20.60
2017-05-23T08:18:13.005Z,20.60
2017-05-23T08:19:13.084Z,20.60
2017-05-23T08:20:12.443Z,20.60
2017-05-23T08:21:13.065Z,20.60
2017-05-23T08:22:12.542Z,20.60
2017-05-23T08:23:13.015Z,20.60
2017-05-23T08:24:12.783Z,20.60
2017-05-23T08:25:10.813Z,20.60
2017-05-23T08:26:12.723Z,20.60
2017-05-23T08:27:12.346Z,20.60
2017-05-23T08:28:12.983Z,20.60
2017-05-23T08:29:13.202Z,20.60
2017-05-23T08:30:13.075Z,20.60
2017-05-23T08:31:13.282Z,20.60
2017-05-23T08:32:14.340Z,20.60
2017-05-23T08:33:13.323Z,20.60
2017-05-23T08:34:13.286Z,20.60
2017-05-23T08:35:12.591Z,20.60
2017-05-23T08:36:13.416Z,20.60
2017-05-23T08:37:13.336Z,20.60
2017-05-23T08:38:13.012Z,20.60
2017-05-23T08:39:12.749Z,20.60
2017-05-23T08:40:14.105Z,20.60
2017-05-23T08:41:12.792Z,20.60
2017-05-23T08:42:12.771Z,20.60
2017-05-23T08:43:12.428Z,20.60
2017-05-23T08:44:13.624Z,20.60
2017-05-23T08:45:13.151Z,20.60
2017-05-23T08:46:13.870Z,20.70
2017-05-23T08:47:13.225Z,20.70
2017-05-23T08:48:13.495Z,20.70
2017-05-23T08:49:13.031Z,20.70
2017-05-23T08:50:13.381Z,20.70
2017-05-23T08:51:12.932Z,20.60
2017-05-23T08:52:12.624Z,20.60
2017-05-23T08:53:13.040Z,20.60
2017-05-23T08:54:12.865Z,20.60
2017-05-23T08:55:12.532Z,20.70
2017-05-23T08:56:13.376Z,20.60
2017-05-23T08:57:12.923Z,20.60
2017-05-23T08:58:13.935Z,20.70
2017-05-23T08:59:12.440Z,20.60
2017-05-23T09:00:13.592Z,20.60
2017-05-23T09:01:13.340Z,20.70
2017-05-23T09:02:13.288Z,20.70
2017-05-23T09:03:12.434Z,20.70
2017-05-23T09:04:13.260Z,20.70
2017-05-23T09:05:12.790Z,20.70
2017-05-23T09:06:13.150Z,20.70
2017-05-23T09:07:13.061Z,20.70
2017-05-23T09:08:12.549Z,20.70
2017-05-23T09:09:13.504Z,20.70
2017-05-23T09:10:13.026Z,20.70
2017-05-23T09:11:12.890Z,20.70
2017-05-23T09:12:12.761Z,20.70
2017-05-23T09:13:10.735Z,20.70
2017-05-23T09:14:12.965Z,20.70
2017-05-23T09:15:12.350Z,20.70
2017-05-23T09:16:09.968Z,20.70
2017-05-23T09:17:13.105Z,20.70
2017-05-23T09:18:10.098Z,20.70
2017-05-23T09:19:12.111Z,20.60
2017-05-23T09:20:10.109Z,20.70
2017-05-23T09:21:13.043Z,20.60
2017-05-23T09:22:12.545Z,20.60
2017-05-23T09:23:10.238Z,20.70
2017-05-23T09:24:13.205Z,20.70
2017-05-23T09:25:13.265Z,20.60
2017-05-23T09:26:13.177Z,20.70
2017-05-23T09:27:13.716Z,20.60
2017-05-23T09:28:13.435Z,20.60
2017-05-23T09:29:15.350Z,20.70
2017-05-23T09:30:13.337Z,20.70
2017-05-23T09:31:10.659Z,20.70
2017-05-23T09:32:13.265Z,20.70
2017-05-23T09:33:13.386Z,20.70
2017-05-23T09:34:13.873Z,20.70
2017-05-23T09:35:09.160Z,20.70
2017-05-23T09:36:12.381Z,20.70
2017-05-23T09:37:12.923Z,20.70
2017-05-23T09:38:09.742Z,20.70
2017-05-23T09:39:12.741Z,20.70
2017-05-23T09:40:12.678Z,20.70
2017-05-23T09:41:13.532Z,20.70
2017-05-23T09:42:13.012Z,20.70
2017-05-23T09:43:10.032Z,20.70
2017-05-23T09:44:13.884Z,20.70
2017-05-23T09:45:12.473Z,20.70
2017-05-23T09:46:13.413Z,20.70
2017-05-23T09:47:12.666Z,20.60
2017-05-23T09:48:13.209Z,20.70
2017-05-23T09:49:12.952Z,20.70
2017-05-23T09:50:12.670Z,20.70
2017-05-23T09:51:13.432Z,20.70
2017-05-23T09:52:10.214Z,20.70
2017-05-23T09:53:12.919Z,20.70
2017-05-23T09:54:09.378Z,20.70
2017-05-23T09:55:12.984Z,20.70
2017-05-23T09:56:12.641Z,20.70
2017-05-23T09:57:13.380Z,20.70
2017-05-23T09:58:12.713Z,20.70
2017-05-23T09:59:13.543Z,20.70
2017-05-23T10:00:13.374Z,20.70
2017-05-23T10:01:12.819Z,20.70
2017-05-23T10:02:12.027Z,20.70
2017-05-23T10:03:12.601Z,20.70
2017-05-23T10:04:13.082Z,20.70
2017-05-23T10:05:10.103Z,20.70
2017-05-23T10:06:13.255Z,20.70
2017-05-23T10:07:12.811Z,20.70
2017-05-23T10:08:12.319Z,20.70
2017-05-23T10:09:13.579Z,20.70
2017-05-23T10:10:14.747Z,20.70
2017-05-23T10:11:12.499Z,20.70
2017-05-23T10:12:13.396Z,20.70
2017-05-23T10:13:13.360Z,20.70
2017-05-23T10:14:13.005Z,20.70
2017-05-23T10:15:14.217Z,20.70
2017-05-23T10:16:13.017Z,20.80
2017-05-23T10:17:13.654Z,20.80
2017-05-23T10:18:12.975Z,20.80
2017-05-23T10:19:12.611Z,20.80
2017-05-23T10:20:12.953Z,20.80
2017-05-23T10:21:13.901Z,20.80
2017-05-23T10:22:12.209Z,20.80
2017-05-23T10:23:13.107Z,20.80
2017-05-23T10:24:12.773Z,20.80
2017-05-23T10:25:12.700Z,20.80
2017-05-23T10:26:14.763Z,20.80
2017-05-23T10:27:12.277Z,20.80
2017-05-23T10:28:10.874Z,20.80
2017-05-23T10:29:13.378Z,20.90
2017-05-23T10:30:12.894Z,20.90
2017-05-23T10:31:12.140Z,20.80
2017-05-23T10:32:13.100Z,20.90
2017-05-23T10:33:09.973Z,20.90
2017-05-23T10:34:13.301Z,20.80
2017-05-23T10:35:13.026Z,20.90
2017-05-23T10:36:14.986Z,20.90
2017-05-23T10:37:13.034Z,20.90
2017-05-23T10:38:12.961Z,20.90
2017-05-23T10:39:12.982Z,20.90
2017-05-23T10:40:14.207Z,20.90
2017-05-23T10:41:14.424Z,20.90
2017-05-23T10:42:13.097Z,20.90
2017-05-23T10:43:09.908Z,20.90
2017-05-23T10:44:13.504Z,20.90
2017-05-23T10:45:09.167Z,20.90
2017-05-23T10:46:12.621Z,20.90
2017-05-23T10:47:12.947Z,20.90
2017-05-23T10:48:13.012Z,20.90
2017-05-23T10:49:12.400Z,20.90
2017-05-23T10:50:13.203Z,20.90
2017-05-23T10:51:12.645Z,20.90
2017-05-23T10:52:13.649Z,20.90
2017-05-23T10:53:13.017Z,20.90
2017-05-23T10:54:12.376Z,20.90
2017-05-23T10:55:12.902Z,20.90
2017-05-23T10:56:13.330Z,20.90
2017-05-23T10:57:13.421Z,20.90
2017-05-23T10:58:12.860Z,20.90
2017-05-23T10:59:13.132Z,20.90
2017-05-23T11:00:12.725Z,20.90
2017-05-23T11:01:14.128Z,21.00
2017-05-23T11:02:12.896Z,21.00
2017-05-23T11:03:12.344Z,21.00
2017-05-23T11:04:13.509Z,21.00
2017-05-23T11:05:13.940Z,21.00
2017-05-23T11:06:13.547Z,21.00
2017-05-23T11:07:13.318Z,21.00
2017-05-23T11:08:13.168Z,20.90
2017-05-23T11:09:12.362Z,20.90
2017-05-23T11:10:13.942Z,20.90
2017-05-23T11:11:12.870Z,20.90
2017-05-23T11:12:10.049Z,20.90
2017-05-23T11:13:13.713Z,20.90
2017-05-23T11:14:14.344Z,20.90
2017-05-23T11:15:12.792Z,20.90
2017-05-23T11:16:10.816Z,20.90
2017-05-23T11:17:13.047Z,20.90
2017-05-23T11:18:13.048Z,20.90
2017-05-23T11:19:13.439Z,20.90
2017-05-23T11:20:13.554Z,20.90
2017-05-23T11:21:14.564Z,20.90
2017-05-23T11:22:13.208Z,20.90
2017-05-23T11:23:13.374Z,20.90
2017-05-23T11:24:12.364Z,20.90
2017-05-23T11:25:13.349Z,20.90
2017-05-23T11:26:13.135Z,20.90
2017-05-23T11:27:10.174Z,20.90
2017-05-23T11:28:12.473Z,20.90
2017-05-23T11:29:12.950Z,20.90
2017-05-23T11:30:12.787Z,20.90
2017-05-23T11:31:12.387Z,20.90
2017-05-23T11:32:12.907Z,20.90
2017-05-23T11:33:12.357Z,20.90
2017-05-23T11:34:13.592Z,20.90
2017-05-23T11:35:13.824Z,20.90
2017-05-23T11:36:12.907Z,20.90
2017-05-23T11:37:12.663Z,20.90
2017-05-23T11:38:14.122Z,20.90
2017-05-23T11:39:12.356Z,20.90
2017-05-23T11:40:13.326Z,20.90
2017-05-23T11:41:13.345Z,21.00
2017-05-23T11:42:13.269Z,21.00
2017-05-23T11:43:14.670Z,21.00
2017-05-23T11:44:13.507Z,21.00
2017-05-23T11:45:14.269Z,21.00
2017-05-23T11:46:12.962Z,21.00
2017-05-23T11:47:13.220Z,21.00
2017-05-23T11:48:12.907Z,21.10
2017-05-23T11:49:12.851Z,21.00
2017-05-23T11:50:13.052Z,21.10
2017-05-23T11:51:12.641Z,21.10
2017-05-23T11:52:13.486Z,21.10
2017-05-23T11:53:12.936Z,21.20
2017-05-23T11:54:12.880Z,21.20
2017-05-23T11:55:12.960Z,21.20
2017-05-23T11:56:12.709Z,21.20
2017-05-23T11:57:10.790Z,21.30
2017-05-23T11:58:13.552Z,21.30
2017-05-23T11:59:13.777Z,21.30
2017-05-23T12:00:11.910Z,21.30
2017-05-23T12:01:12.859Z,21.30
2017-05-23T12:02:12.396Z,21.40
2017-05-23T12:03:12.976Z,21.40
2017-05-23T12:04:12.398Z,21.40
2017-05-23T12:05:10.649Z,21.40
2017-05-23T12:06:13.724Z,21.50
2017-05-23T12:07:14.587Z,21.50
2017-05-23T12:08:13.033Z,21.50
2017-05-23T12:09:12.639Z,21.60
2017-05-23T12:10:12.460Z,21.60
2017-05-23T12:11:09.332Z,21.70
2017-05-23T12:12:13.218Z,21.70
2017-05-23T12:13:12.649Z,21.70
2017-05-23T12:14:13.169Z,21.70
2017-05-23T12:15:12.897Z,21.70
2017-05-23T12:16:09.047Z,21.70
2017-05-23T12:17:12.580Z,21.80
2017-05-23T12:18:14.376Z,21.80
2017-05-23T12:19:12.974Z,21.80
2017-05-23T12:20:13.845Z,21.80
2017-05-23T12:21:10.401Z,21.70
2017-05-23T12:22:14.537Z,21.70
2017-05-23T12:23:13.226Z,21.70
2017-05-23T12:24:12.874Z,21.70
2017-05-23T12:25:12.799Z,21.70
2017-05-23T12:26:14.373Z,21.70
2017-05-23T12:27:12.880Z,21.60
2017-05-23T12:28:12.855Z,21.60
2017-05-23T12:29:12.689Z,21.60
2017-05-23T12:30:13.236Z,21.50
2017-05-23T12:31:13.392Z,21.50
2017-05-23T12:32:12.803Z,21.50
2017-05-23T12:33:12.386Z,21.50
2017-05-23T12:34:12.996Z,21.50
2017-05-23T12:35:12.586Z,21.50
2017-05-23T12:36:13.726Z,21.50
2017-05-23T12:37:13.128Z,21.50
2017-05-23T12:38:15.151Z,21.40
2017-05-23T12:39:12.898Z,21.40
2017-05-23T12:40:13.016Z,21.40
2017-05-23T12:41:12.382Z,21.40
2017-05-23T12:42:12.962Z,21.40
2017-05-23T12:43:12.484Z,21.30
2017-05-23T12:44:13.088Z,21.30
2017-05-23T12:45:12.672Z,21.30
2017-05-23T12:46:13.878Z,21.30
2017-05-23T12:47:09.111Z,21.30
2017-05-23T12:48:13.398Z,21.30
2017-05-23T12:49:13.227Z,21.30
2017-05-23T12:50:12.736Z,21.30
2017-05-23T12:51:13.100Z,21.30
2017-05-23T12:52:12.758Z,21.30
2017-05-23T12:53:12.338Z,21.30
2017-05-23T12:54:09.652Z,21.30
2017-05-23T12:55:12.943Z,21.30
2017-05-23T12:56:12.650Z,21.30
2017-05-23T12:57:13.091Z,21.20
2017-05-23T12:58:12.484Z,21.20
2017-05-23T12:59:13.609Z,21.20
2017-05-23T13:00:14.849Z,21.20
2017-05-23T13:01:11.948Z,21.20
2017-05-23T13:02:12.820Z,21.20
2017-05-23T13:03:12.211Z,21.20
2017-05-23T13:04:12.973Z,21.20
2017-05-23T13:05:12.542Z,21.20
2017-05-23T13:06:10.418Z,21.20
2017-05-23T13:07:13.241Z,21.20
2017-05-23T13:08:12.454Z,21.20
2017-05-23T13:09:12.797Z,21.20
2017-05-23T13:10:14.003Z,21.20
2017-05-23T13:11:09.679Z,21.20
2017-05-23T13:12:13.168Z,21.20
2017-05-23T13:13:12.984Z,21.20
2017-05-23T13:14:12.421Z,21.10
2017-05-23T13:15:14.553Z,21.10
2017-05-23T13:16:12.962Z,21.10
2017-05-23T13:17:09.963Z,21.10
2017-05-23T13:18:13.573Z,21.10
2017-05-23T13:19:13.508Z,21.10
2017-05-23T13:20:13.568Z,21.10
2017-05-23T13:21:13.617Z,21.10
2017-05-23T13:22:13.971Z,21.10
2017-05-23T13:23:12.354Z,21.10
2017-05-23T13:24:10.420Z,21.10
2017-05-23T13:25:13.050Z,21.10
2017-05-23T13:26:12.833Z,21.10
2017-05-23T13:27:09.819Z,21.10
2017-05-23T13:28:13.008Z,21.10
2017-05-23T13:29:12.883Z,21.10
2017-05-23T13:30:12.350Z,21.10
2017-05-23T13:31:12.720Z,21.10
2017-05-23T13:32:12.304Z,21.00
2017-05-23T13:33:12.795Z,21.00
2017-05-23T13:34:12.213Z,21.00
2017-05-23T13:35:12.961Z,21.00
2017-05-23T13:36:12.778Z,21.10
2017-05-23T13:37:12.893Z,21.00
2017-05-23T13:38:12.439Z,21.00
2017-05-23T13:39:13.491Z,21.10
2017-05-23T13:40:13.125Z,21.00
2017-05-23T13:41:13.098Z,21.10
2017-05-23T13:42:13.318Z,21.10
2017-05-23T13:43:13.476Z,21.20
2017-05-23T13:44:13.711Z,21.20
2017-05-23T13:45:10.647Z,21.20
2017-05-23T13:46:12.706Z,21.20
2017-05-23T13:47:12.218Z,21.20
2017-05-23T13:48:13.017Z,21.20
2017-05-23T13:49:12.464Z,21.20
2017-05-23T13:50:13.691Z,21.30
2017-05-23T13:51:13.191Z,21.20
2017-05-23T13:52:12.959Z,21.20
2017-05-23T13:53:14.163Z,21.30
2017-05-23T13:54:09.870Z,21.30
2017-05-23T13:55:13.220Z,21.30
2017-05-23T13:56:10.084Z,21.30
2017-05-23T13:57:13.686Z,21.30
2017-05-23T13:58:10.382Z,21.30
2017-05-23T13:59:12.814Z,21.30
2017-05-23T14:00:12.690Z,21.30
2017-05-23T14:01:10.628Z,21.30
2017-05-23T14:02:13.223Z,21.30
2017-05-23T14:03:13.239Z,21.30
2017-05-23T14:04:12.644Z,21.40
2017-05-23T14:05:10.759Z,21.40
2017-05-23T14:06:12.931Z,21.30
2017-05-23T14:07:13.008Z,21.30
2017-05-23T14:08:12.775Z,21.30
2017-05-23T14:09:13.175Z,21.40
2017-05-23T14:10:13.646Z,21.30
2017-05-23T14:11:13.605Z,21.30
2017-05-23T14:12:14.601Z,21.30
